Wednesday, April 25, 2018, 8:14 AM EDT
Back to Local

KJYO, Leesburg / Godfrey

Location: Leesburg, VA, United States Lat: 39.083
Local Time: 8:14 AM EDT (12:14 GMT) Lon: -77.567
Time Zone: US/Eastern Elev: 390 ft

Show me the last for .
Show Decoded

2018-04-25 07:35 METAR KJYO 251135Z AUTO 02008KT 1 1/2SM BR OVC004 10/10 A2983 RMK AO2 =
2018-04-25 07:15 METAR KJYO 251115Z AUTO 01007KT 1 3/4SM BR OVC004 10/10 A2983 RMK AO2 =
2018-04-25 06:55 METAR KJYO 251055Z AUTO 01009KT 2SM BR OVC004 10/10 A2983 RMK AO2 P0002 =
2018-04-25 06:35 METAR KJYO 251035Z AUTO 01008KT 2SM -RA OVC004 10/10 A2983 RMK AO2 P0002 =
2018-04-25 06:15 METAR KJYO 251015Z AUTO 02005KT 2 1/2SM BR OVC004 10/10 A2983 RMK AO2 P0001 =
2018-04-25 05:55 METAR KJYO 250955Z AUTO 02005KT 3SM -RA OVC004 10/10 A2983 RMK AO2 P0003 =
2018-04-25 05:35 METAR KJYO 250935Z AUTO 02005KT 3SM -RA OVC004 10/10 A2983 RMK AO2 P0003 =
2018-04-25 05:15 METAR KJYO 250915Z AUTO 02004KT 2 1/2SM DZ OVC004 10/10 A2983 RMK AO2 P0002 =
2018-04-25 04:55 METAR KJYO 250855Z AUTO 03005KT 4SM BR OVC004 10/10 A2984 RMK AO2 P0001 =
2018-04-25 04:35 METAR KJYO 250835Z AUTO 02006KT 5SM -RA OVC004 10/10 A2984 RMK AO2 LTG DSNT SE
                 P0001 =
2018-04-25 04:15 METAR KJYO 250815Z AUTO 03008KT 7SM -RA OVC004 10/10 A2985 RMK AO2 P0001 =
2018-04-25 03:55 METAR KJYO 250755Z AUTO 03007KT 7SM RA OVC004 10/10 A2985 RMK AO2 P0004 =
2018-04-25 03:35 METAR KJYO 250735Z AUTO 03006KT 5SM RA OVC004 10/10 A2986 RMK AO2 P0003 =
2018-04-25 03:15 METAR KJYO 250715Z AUTO 04007KT 10SM -RA OVC004 10/10 A2987 RMK AO2 P0001 =
2018-04-25 02:55 METAR KJYO 250655Z AUTO 03007KT 5SM -RA OVC004 10/10 A2988 RMK AO2 P0011 =
2018-04-25 02:35 METAR KJYO 250635Z AUTO 03006KT 5SM +RA OVC004 10/10 A2989 RMK AO2 P0007 =
2018-04-25 02:15 METAR KJYO 250615Z AUTO 03005KT 5SM -RA OVC004 10/10 A2990 RMK AO2 P0002 =
2018-04-25 01:55 METAR KJYO 250555Z AUTO 03006KT 5SM -RA OVC004 10/10 A2991 RMK AO2 P0003 =
2018-04-25 01:35 METAR KJYO 250535Z AUTO 03006KT 3SM -RA OVC004 10/10 A2992 RMK AO2 LTG DSNT S
                 P0001 =
2018-04-25 01:15 METAR KJYO 250515Z AUTO 03005KT 4SM -DZ OVC004 10/10 A2993 RMK AO2 =
2018-04-25 00:55 METAR KJYO 250455Z AUTO 04005KT 3SM -RA OVC004 10/10 A2994 RMK AO2 LTG DSNT S
                 P0003 =
2018-04-25 00:35 METAR KJYO 250435Z AUTO 04006KT 3SM RA OVC004 10/10 A2995 RMK AO2 P0001 =
2018-04-25 00:15 METAR KJYO 250415Z AUTO 04007KT 4SM -RA OVC004 10/10 A2996 RMK AO2 P0001 =
2018-04-24 23:55 METAR KJYO 250355Z AUTO 04006KT 5SM DZ OVC004 10/10 A2996 RMK AO2 P0019 =
2018-04-24 23:35 METAR KJYO 250335Z AUTO 04005KT 5SM RA BKN006 OVC010 10/10 A2997 RMK AO2 P0018 =
2018-04-24 23:15 METAR KJYO 250315Z AUTO 05008KT 3SM +RA BKN006 OVC010 10/10 A2998 RMK AO2 P0008
                 =
2018-04-24 22:55 METAR KJYO 250255Z AUTO 05008KT 5SM RA OVC006 10/10 A2999 RMK AO2 P0007 =
2018-04-24 22:35 METAR KJYO 250235Z AUTO 04006KT 4SM RA OVC006 10/10 A3000 RMK AO2 P0004 =
2018-04-24 22:15 METAR KJYO 250215Z AUTO 06006KT 5SM -DZ OVC006 10/10 A3002 RMK AO2 P0001 =
2018-04-24 21:55 METAR KJYO 250155Z AUTO 06010KT 4SM RA OVC006 10/10 A3003 RMK AO2 P0009 =
2018-04-24 21:35 METAR KJYO 250135Z AUTO 06009G14KT 020V080 5SM RA BKN006 BKN014 OVC033 10/10
                 A3003 RMK AO2 P0005 =
2018-04-24 21:15 METAR KJYO 250115Z AUTO 07008KT 5SM -RA SCT006 BKN010 OVC042 11/11 A3003 RMK AO2
                 P0003 =
2018-04-24 20:55 METAR KJYO 250055Z AUTO 08007KT 060V120 4SM RA OVC006 11/11 A3005 RMK AO2 P0006
                 =
2018-04-24 20:35 METAR KJYO 250035Z AUTO 08006KT 5SM RA OVC004 11/11 A3005 RMK AO2 P0002 =
2018-04-24 20:15 METAR KJYO 250015Z AUTO 06007KT 5SM DZ OVC004 11/11 A3004 RMK AO2 P0001 =
2018-04-24 19:55 METAR KJYO 242355Z AUTO 08010G14KT 4SM -RA OVC006 11/11 A3005 RMK AO2 P0006 =
2018-04-24 19:35 METAR KJYO 242335Z AUTO 06004KT 3SM -RA BKN008 BKN014 OVC023 11/11 A3006 RMK AO2
                 P0005 =
2018-04-24 19:15 METAR KJYO 242315Z AUTO 07006KT 3SM RA SCT008 BKN014 OVC040 12/12 A3007 RMK AO2
                 P0003 =
2018-04-24 18:55 METAR KJYO 242255Z AUTO 07004KT 3SM RA SCT022 BKN028 OVC065 12/12 A3008 RMK AO2
                 P0005 =
2018-04-24 18:35 METAR KJYO 242235Z AUTO 09005KT 4SM RA BKN030 BKN037 OVC070 12/12 A3008 RMK AO2
                 P0002 =
2018-04-24 18:15 METAR KJYO 242215Z AUTO 07007KT 7SM RA OVC028 13/12 A3008 RMK AO2 =
2018-04-24 17:55 METAR KJYO 242155Z AUTO 09005KT 7SM RA BKN028 BKN036 OVC055 13/13 A3008 RMK AO2
                 P0001 =
2018-04-24 17:35 METAR KJYO 242135Z AUTO 10007KT 7SM -RA BKN030 BKN035 OVC070 13/13 A3009 RMK AO2
                 =
2018-04-24 17:15 METAR KJYO 242115Z AUTO 10007KT 070V130 10SM RA BKN030 BKN035 OVC070 13/13 A3009
                 RMK AO2 =
2018-04-24 16:55 METAR KJYO 242055Z AUTO 11006KT 10SM -RA BKN033 BKN041 OVC070 13/13 A3009 RMK
                 AO2 P0003 =
2018-04-24 16:35 METAR KJYO 242035Z AUTO 10006KT 7SM -RA SCT033 BKN070 OVC080 14/13 A3010 RMK AO2
                 P0002 =
2018-04-24 16:15 METAR KJYO 242015Z AUTO 10005KT 7SM -RA BKN070 OVC080 14/13 A3011 RMK AO2 P0001
                 =
2018-04-24 15:55 METAR KJYO 241955Z AUTO 13008KT 10SM RA SCT036 SCT044 OVC070 15/12 A3012 RMK AO2
                 P0003 =
2018-04-24 15:35 METAR KJYO 241935Z AUTO 13008KT 10SM -RA BKN038 BKN043 OVC060 15/12 A3013 RMK
                 AO2 P0001 =
2018-04-24 15:15 METAR KJYO 241915Z AUTO 13012G18KT 10SM -RA BKN038 BKN048 OVC060 15/12 A3014 RMK
                 AO2 =
2018-04-24 14:55 METAR KJYO 241855Z AUTO 14013G20KT 10SM DZ SCT032 OVC038 16/12 A3015 RMK AO2 =
2018-04-24 14:35 METAR KJYO 241835Z AUTO 15011G18KT 10SM -RA BKN036 OVC041 16/12 A3016 RMK AO2 =
2018-04-24 14:15 METAR KJYO 241815Z AUTO 14007KT 10SM -RA BKN035 OVC041 16/11 A3017 RMK AO2 =
2018-04-24 13:55 METAR KJYO 241755Z AUTO 13008G21KT 10SM -RA OVC037 16/11 A3018 RMK AO2 =
2018-04-24 13:35 METAR KJYO 241735Z AUTO 13010G15KT 10SM -RA BKN039 OVC049 17/10 A3018 RMK AO2 =
2018-04-24 13:15 METAR KJYO 241715Z AUTO 14011G21KT 10SM SCT039 OVC049 17/10 A3019 RMK AO2 =
2018-04-24 12:55 METAR KJYO 241655Z AUTO 13011G21KT 10SM SCT039 SCT044 OVC049 17/10 A3020 RMK AO2
                 =
2018-04-24 12:35 METAR KJYO 241635Z AUTO 11014G19KT 10SM SCT037 BKN049 BKN060 17/10 A3021 RMK AO2
                 =
2018-04-24 12:15 METAR KJYO 241615Z AUTO 13010G20KT 10SM OVC049 16/10 A3022 RMK AO2 =
2018-04-24 11:55 METAR KJYO 241555Z AUTO 13010G19KT 10SM OVC047 16/09 A3023 RMK AO2 =
2018-04-24 11:35 METAR KJYO 241535Z AUTO 14012G18KT 10SM OVC047 16/09 A3024 RMK AO2 =
2018-04-24 11:15 METAR KJYO 241515Z AUTO 14010G19KT 10SM SCT038 OVC046 16/09 A3025 RMK AO2 =
2018-04-24 10:55 METAR KJYO 241455Z AUTO 13009G14KT 100V160 10SM SCT038 OVC044 15/08 A3025 RMK
                 AO2 =
2018-04-24 10:35 METAR KJYO 241435Z AUTO 13008KT 10SM SCT037 OVC042 15/08 A3026 RMK AO2 =
2018-04-24 10:15 METAR KJYO 241415Z AUTO 13008KT 10SM SCT037 OVC044 15/08 A3026 RMK AO2 =
2018-04-24 09:55 METAR KJYO 241355Z AUTO 12005KT 10SM BKN044 OVC050 14/08 A3026 RMK AO2 =
2018-04-24 09:35 METAR KJYO 241335Z AUTO 11005KT 10SM BKN038 OVC048 13/07 A3026 RMK AO2 =
2018-04-24 09:15 METAR KJYO 241315Z AUTO 10005KT 10SM OVC038 13/07 A3027 RMK AO2 =
2018-04-24 08:55 METAR KJYO 241255Z AUTO 11004KT 10SM OVC038 13/07 A3028 RMK AO2 =
2018-04-24 08:35 METAR KJYO 241235Z AUTO 08005KT 10SM BKN038 OVC048 13/07 A3028 RMK AO2 =
2018-04-24 08:15 METAR KJYO 241215Z AUTO 09004KT 10SM OVC036 13/07 A3028 RMK AO2 =

Support USWX by starting your Amazon purchase here.